createdAt,value
2022-10-17T00:01:15.561Z,98747.03
2022-10-17T00:03:43.860Z,98746.31
2022-10-17T00:06:15.605Z,98748.38
2022-10-17T00:08:45.085Z,98750.25
2022-10-17T00:11:18.830Z,98752.28
2022-10-17T00:13:47.755Z,98749.91
2022-10-17T00:16:17.202Z,98751.94
2022-10-17T00:18:45.453Z,98746.97
2022-10-17T00:21:18.261Z,98760.19
2022-10-17T00:23:46.833Z,98758.72
2022-10-17T00:26:17.945Z,98762.22
2022-10-17T00:28:48.755Z,98761.38
2022-10-17T00:31:20.262Z,98759.53
2022-10-17T00:33:49.705Z,98766.50
2022-10-17T00:36:20.280Z,98766.59
2022-10-17T00:38:52.189Z,98766.91
2022-10-17T00:41:24.777Z,98773.22
2022-10-17T00:44:00.170Z,98772.41
2022-10-17T00:46:31.236Z,98771.97
2022-10-17T00:49:04.476Z,98765.69
2022-10-17T00:51:40.682Z,98756.78
2022-10-17T00:54:10.927Z,98768.69
2022-10-17T00:56:41.269Z,98766.38
2022-10-17T00:59:10.873Z,98760.94
2022-10-17T01:01:40.944Z,98761.97
2022-10-17T01:04:09.873Z,98766.69
2022-10-17T01:06:40.953Z,98769.13
2022-10-17T01:09:09.905Z,98776.56
2022-10-17T01:11:50.906Z,98771.53
2022-10-17T01:14:30.991Z,98767.53
2022-10-17T01:17:10.245Z,98770.25
2022-10-17T01:20:06.921Z,98775.25
2022-10-17T01:22:42.671Z,98777.72
2022-10-17T01:25:31.193Z,98762.59
2022-10-17T01:28:20.436Z,98769.47
2022-10-17T01:31:07.842Z,98767.81
2022-10-17T01:33:54.707Z,98766.16
2022-10-17T01:36:38.122Z,98768.34
2022-10-17T01:39:17.400Z,98765.38
2022-10-17T01:41:51.440Z,98766.31
2022-10-17T01:44:23.883Z,98768.09
2022-10-17T01:46:59.548Z,98764.72
2022-10-17T01:49:30.783Z,98763.00
2022-10-17T01:52:05.160Z,98773.91
2022-10-17T01:54:40.718Z,98767.63
2022-10-17T01:57:14.357Z,98762.59
2022-10-17T01:59:46.067Z,98760.81
2022-10-17T02:02:17.889Z,98762.50
2022-10-17T02:04:48.496Z,98758.06
2022-10-17T02:07:17.107Z,98758.06
2022-10-17T02:09:45.585Z,98756.84
2022-10-17T02:12:36.407Z,98753.25
2022-10-17T02:15:33.100Z,98750.47
2022-10-17T02:18:17.663Z,98749.44
2022-10-17T02:20:52.984Z,98757.41
2022-10-17T02:23:31.378Z,98754.06
2022-10-17T02:26:08.399Z,98759.25
2022-10-17T02:28:46.142Z,98752.31
2022-10-17T02:31:18.094Z,98753.25
2022-10-17T02:33:53.899Z,98765.41
2022-10-17T02:36:26.423Z,98766.09
2022-10-17T02:38:56.845Z,98762.94
2022-10-17T02:41:26.547Z,98763.13
2022-10-17T02:43:57.701Z,98763.13
2022-10-17T02:46:29.820Z,98774.88
2022-10-17T02:49:04.612Z,98772.56
2022-10-17T02:51:43.902Z,98761.94
2022-10-17T02:54:18.975Z,98773.44
2022-10-17T02:56:54.795Z,98775.38
2022-10-17T02:59:26.267Z,98767.75
2022-10-17T03:01:54.828Z,98773.97
2022-10-17T03:04:24.524Z,98780.28
2022-10-17T03:06:52.869Z,98769.63
2022-10-17T03:09:21.100Z,98779.63
2022-10-17T03:11:49.437Z,98773.78
2022-10-17T03:14:17.838Z,98773.97
2022-10-17T03:17:01.290Z,98772.53
2022-10-17T03:19:31.159Z,98774.41
2022-10-17T03:21:59.597Z,98772.53
2022-10-17T03:24:27.842Z,98777.91
2022-10-17T03:26:56.366Z,98775.41
2022-10-17T03:29:24.964Z,98777.00
2022-10-17T03:31:53.226Z,98778.00
2022-10-17T03:34:21.712Z,98780.03
2022-10-17T03:36:51.418Z,98781.00
2022-10-17T03:39:20.713Z,98784.59
2022-10-17T03:41:49.735Z,98787.41
2022-10-17T03:44:18.053Z,98796.41
2022-10-17T03:46:46.485Z,98793.72
2022-10-17T03:49:14.886Z,98783.59
2022-10-17T03:51:43.342Z,98791.28
2022-10-17T03:54:16.478Z,98795.63
2022-10-17T03:56:44.975Z,98797.50
2022-10-17T03:59:17.469Z,98796.41
2022-10-17T04:01:52.675Z,98794.81
2022-10-17T04:04:21.026Z,98789.72
2022-10-17T04:06:49.370Z,98788.69
2022-10-17T04:09:19.293Z,98789.38
2022-10-17T04:11:57.074Z,98792.88
2022-10-17T04:14:26.222Z,98796.25
2022-10-17T04:16:54.567Z,98809.81
2022-10-17T04:19:23.412Z,98807.78
2022-10-17T04:21:52.217Z,98810.53
2022-10-17T04:24:22.200Z,98811.38
2022-10-17T04:27:09.201Z,98824.53
2022-10-17T04:29:42.401Z,98821.56
2022-10-17T04:32:29.011Z,98824.31
2022-10-17T04:35:04.951Z,98822.66
2022-10-17T04:37:33.766Z,98828.94
2022-10-17T04:40:11.232Z,98830.00
2022-10-17T04:42:39.552Z,98835.50
2022-10-17T04:45:09.621Z,98846.06
2022-10-17T04:47:38.607Z,98842.56
2022-10-17T04:50:07.841Z,98836.00
2022-10-17T04:52:38.093Z,98836.84
2022-10-17T04:55:09.051Z,98839.69
2022-10-17T04:57:37.936Z,98830.84
2022-10-17T05:00:16.847Z,98835.91
2022-10-17T05:02:55.218Z,98832.34
2022-10-17T05:05:23.449Z,98830.00
2022-10-17T05:07:54.743Z,98832.84
2022-10-17T05:10:28.074Z,98844.09
2022-10-17T05:12:56.426Z,98839.84
2022-10-17T05:15:28.928Z,98843.22
2022-10-17T05:17:58.453Z,98846.69
2022-10-17T05:20:28.639Z,98834.66
2022-10-17T05:22:57.035Z,98832.72
2022-10-17T05:25:26.787Z,98830.13
2022-10-17T05:27:55.135Z,98833.66
2022-10-17T05:30:27.115Z,98838.84
2022-10-17T05:32:59.891Z,98836.91
2022-10-17T05:35:28.358Z,98839.50
2022-10-17T05:37:57.520Z,98836.09
2022-10-17T05:40:28.443Z,98842.78
2022-10-17T05:42:56.760Z,98846.22
2022-10-17T05:45:26.366Z,98848.69
2022-10-17T05:47:54.725Z,98846.13
2022-10-17T05:50:24.224Z,98847.03
2022-10-17T05:53:06.618Z,98845.38
2022-10-17T05:55:42.269Z,98850.38
2022-10-17T05:58:17.671Z,98848.69
2022-10-17T06:01:00.121Z,98850.38
2022-10-17T06:03:29.290Z,98856.47
2022-10-17T06:05:59.576Z,98865.19
2022-10-17T06:08:28.014Z,98869.44
2022-10-17T06:10:57.679Z,98871.09
2022-10-17T06:13:26.085Z,98867.78
2022-10-17T06:15:55.765Z,98867.69
2022-10-17T06:18:26.293Z,98866.84
2022-10-17T06:20:55.208Z,98873.69
2022-10-17T06:23:23.698Z,98872.13
2022-10-17T06:26:06.581Z,98867.78
2022-10-17T06:28:36.213Z,98871.28
2022-10-17T06:31:07.401Z,98875.53
2022-10-17T06:33:36.559Z,98867.78
2022-10-17T06:36:08.204Z,98861.75
2022-10-17T06:38:37.217Z,98871.19
2022-10-17T06:41:14.655Z,98875.44
2022-10-17T06:43:46.275Z,98877.97
2022-10-17T06:46:46.855Z,98885.75
2022-10-17T06:49:17.994Z,98896.84
2022-10-17T06:51:51.913Z,98898.53
2022-10-17T06:54:24.678Z,98893.34
2022-10-17T06:57:06.337Z,98910.50
2022-10-17T07:00:14.523Z,98912.09
2022-10-17T07:02:47.965Z,98921.63
2022-10-17T07:05:16.507Z,98920.63
2022-10-17T07:07:46.398Z,98921.25
2022-10-17T07:10:17.047Z,98937.38
2022-10-17T07:12:47.047Z,98931.22
2022-10-17T07:15:15.549Z,98925.16
2022-10-17T07:17:43.941Z,98933.72
2022-10-17T07:20:12.966Z,98927.34
2022-10-17T07:22:41.418Z,98929.72
2022-10-17T07:25:10.953Z,98935.28
2022-10-17T07:28:02.154Z,98939.31
2022-10-17T07:30:30.716Z,98936.38
2022-10-17T07:33:04.664Z,98938.25
2022-10-17T07:35:33.165Z,98945.34
2022-10-17T07:38:01.416Z,98933.78
2022-10-17T07:40:29.907Z,98944.78
2022-10-17T07:43:00.013Z,98945.69
2022-10-17T07:45:29.139Z,98944.41
2022-10-17T07:47:59.117Z,98942.16
2022-10-17T07:50:27.549Z,98949.84
2022-10-17T07:52:55.947Z,98959.91
2022-10-17T07:55:24.237Z,98957.88
2022-10-17T07:57:52.617Z,98954.34
2022-10-17T08:00:22.258Z,98943.63
2022-10-17T08:02:50.564Z,98949.50
2022-10-17T08:05:19.011Z,98947.97
2022-10-17T08:07:47.480Z,98951.88
2022-10-17T08:10:17.615Z,98956.66
2022-10-17T08:12:46.128Z,98955.31
2022-10-17T08:15:14.610Z,98953.00
2022-10-17T08:17:44.428Z,98954.41
2022-10-17T08:20:13.241Z,98956.63
2022-10-17T08:22:41.771Z,98957.75
2022-10-17T08:25:10.960Z,98949.28
2022-10-17T08:27:39.325Z,98959.69
2022-10-17T08:30:09.520Z,98952.97
2022-10-17T08:32:37.974Z,98954.78
2022-10-17T08:35:08.713Z,98952.19
2022-10-17T08:37:37.247Z,98952.03
2022-10-17T08:40:07.174Z,98954.34
2022-10-17T08:42:57.137Z,98962.25
2022-10-17T08:45:33.395Z,98966.31
2022-10-17T08:48:03.942Z,98973.31
2022-10-17T08:50:40.547Z,98973.78
2022-10-17T08:53:17.442Z,98963.91
2022-10-17T08:55:48.683Z,98967.91
2022-10-17T08:58:21.943Z,98964.47
2022-10-17T09:01:03.456Z,98965.31
2022-10-17T09:03:53.144Z,98969.19
2022-10-17T09:06:29.940Z,98968.84
2022-10-17T09:09:16.913Z,98971.13
2022-10-17T09:11:58.035Z,98966.22
2022-10-17T09:14:54.085Z,98965.16
2022-10-17T09:17:36.444Z,98958.47
2022-10-17T09:20:11.827Z,98962.22
2022-10-17T09:22:49.213Z,98967.69
2022-10-17T09:25:21.012Z,98955.84
2022-10-17T09:27:53.672Z,98957.13
2022-10-17T09:30:45.049Z,98962.56
2022-10-17T09:33:34.419Z,98965.06
2022-10-17T09:36:11.268Z,98960.50
2022-10-17T09:38:44.146Z,98963.34
2022-10-17T09:41:43.592Z,98960.72
2022-10-17T09:44:20.396Z,98959.97
2022-10-17T09:47:14.086Z,98961.88
2022-10-17T09:49:44.814Z,98954.88
2022-10-17T09:52:16.870Z,98960.59
2022-10-17T09:54:50.104Z,98955.44
2022-10-17T09:57:20.817Z,98955.75
2022-10-17T09:59:58.715Z,98957.94
2022-10-17T10:02:29.753Z,98957.41
2022-10-17T10:05:05.102Z,98955.31
2022-10-17T10:07:37.388Z,98956.84
2022-10-17T10:10:09.970Z,98961.84
2022-10-17T10:12:40.659Z,98953.34
2022-10-17T10:15:34.408Z,98950.16
2022-10-17T10:18:03.445Z,98957.81
2022-10-17T10:20:36.303Z,98953.19
2022-10-17T10:23:21.494Z,98959.84
2022-10-17T10:25:55.222Z,98952.84
2022-10-17T10:28:28.402Z,98954.81
2022-10-17T10:30:59.425Z,98956.91
2022-10-17T10:33:31.186Z,98961.47
2022-10-17T10:36:03.341Z,98960.56
2022-10-17T10:38:33.813Z,98963.44
2022-10-17T10:41:07.821Z,98963.00
2022-10-17T10:43:40.459Z,98971.03
2022-10-17T10:46:23.497Z,98968.56
2022-10-17T10:48:55.349Z,98962.41
2022-10-17T10:51:29.750Z,98974.31
2022-10-17T10:54:06.491Z,98965.50
2022-10-17T10:56:40.193Z,98961.78
2022-10-17T10:59:20.116Z,98960.72
2022-10-17T11:01:55.874Z,98954.88
2022-10-17T11:04:33.911Z,98961.09
2022-10-17T11:07:06.951Z,98954.53
2022-10-17T11:09:54.080Z,98963.59
2022-10-17T11:12:30.176Z,98952.38
2022-10-17T11:15:05.176Z,98960.94
2022-10-17T11:17:39.995Z,98950.56
2022-10-17T11:20:19.375Z,98950.88
2022-10-17T11:22:50.686Z,98944.56
2022-10-17T11:25:33.158Z,98943.56
2022-10-17T11:28:05.083Z,98938.81
2022-10-17T11:33:28.028Z,98935.81
2022-10-17T11:36:04.546Z,98928.84
2022-10-17T11:38:44.919Z,98926.59
2022-10-17T11:41:18.395Z,98934.97
2022-10-17T11:43:54.863Z,98932.38
2022-10-17T11:46:26.121Z,98924.38
2022-10-17T11:49:08.960Z,98924.69
2022-10-17T11:52:02.899Z,98926.06
2022-10-17T11:54:37.727Z,98925.72
2022-10-17T11:57:25.879Z,98924.56
2022-10-17T12:00:09.003Z,98922.75
2022-10-17T12:02:43.836Z,98921.41
2022-10-17T12:05:23.602Z,98919.06
2022-10-17T12:07:57.468Z,98915.13
2022-10-17T12:10:40.298Z,98913.09
2022-10-17T12:13:57.866Z,98914.94
2022-10-17T12:16:46.120Z,98920.13
2022-10-17T12:19:38.113Z,98911.66
2022-10-17T12:22:20.711Z,98921.06
2022-10-17T12:25:01.322Z,98907.28
2022-10-17T12:27:45.946Z,98909.97
2022-10-17T12:30:24.543Z,98907.41
2022-10-17T12:33:07.435Z,98904.47
2022-10-17T12:35:39.107Z,98907.88
2022-10-17T12:38:27.835Z,98906.94
2022-10-17T12:41:01.600Z,98913.44
2022-10-17T12:43:57.071Z,98914.13
2022-10-17T12:46:51.043Z,98921.59
2022-10-17T12:49:43.259Z,98916.81
2022-10-17T12:52:54.903Z,98914.72
2022-10-17T12:55:26.837Z,98912.09
2022-10-17T12:58:00.244Z,98902.97
2022-10-17T13:00:37.119Z,98910.44
2022-10-17T13:03:13.269Z,98913.09
2022-10-17T13:05:49.457Z,98910.78
2022-10-17T13:08:22.189Z,98907.81
2022-10-17T13:10:53.507Z,98909.16
2022-10-17T13:13:37.633Z,98915.28
2022-10-17T13:16:06.645Z,98917.25
2022-10-17T13:18:35.577Z,98924.97
2022-10-17T13:21:08.487Z,98930.09
2022-10-17T13:23:39.077Z,98936.91
2022-10-17T13:26:16.120Z,98944.84
2022-10-17T13:28:44.918Z,98945.53
2022-10-17T13:31:31.824Z,98951.13
2022-10-17T13:34:02.940Z,98953.47
2022-10-17T13:36:35.474Z,98961.09
2022-10-17T13:39:12.196Z,98954.75
2022-10-17T13:41:41.967Z,98956.09
2022-10-17T13:44:15.503Z,98955.28
2022-10-17T13:46:45.076Z,98961.34
2022-10-17T13:49:23.176Z,98961.81
2022-10-17T13:51:57.058Z,98962.97
2022-10-17T13:54:40.179Z,98961.00
2022-10-17T13:57:21.340Z,98957.25
2022-10-17T13:59:52.673Z,98959.88
2022-10-17T14:02:24.257Z,98954.84
2022-10-17T14:05:16.700Z,98962.31
2022-10-17T14:10:44.528Z,98967.78
2022-10-17T14:13:24.304Z,98965.75
2022-10-17T14:15:54.867Z,98966.72
2022-10-17T14:18:33.269Z,98966.88
2022-10-17T14:24:27.797Z,98959.88
2022-10-17T14:26:58.984Z,98969.44
2022-10-17T14:29:30.256Z,98968.75
2022-10-17T14:32:06.057Z,98967.09
2022-10-17T14:34:37.936Z,98966.09
2022-10-17T14:37:11.841Z,98968.91
2022-10-17T14:39:41.924Z,98967.34
2022-10-17T14:42:20.580Z,98966.28
2022-10-17T14:44:51.590Z,98972.31
2022-10-17T14:47:42.820Z,98974.63
2022-10-17T14:50:24.663Z,98969.38
2022-10-17T14:53:05.930Z,98974.41
2022-10-17T14:55:37.246Z,98971.69
2022-10-17T14:58:18.085Z,98974.53
2022-10-17T15:00:46.739Z,98974.00
2022-10-17T15:03:15.292Z,98970.53
2022-10-17T15:05:43.782Z,98970.13
2022-10-17T15:08:14.910Z,98974.66
2022-10-17T15:10:46.130Z,98974.44
2022-10-17T15:13:27.699Z,98971.59
2022-10-17T15:15:57.639Z,98987.38
2022-10-17T15:18:26.060Z,98981.47
2022-10-17T15:21:04.574Z,98983.31
2022-10-17T15:23:34.993Z,98982.22
2022-10-17T15:26:04.969Z,98987.53
2022-10-17T15:28:33.383Z,98981.25
2022-10-17T15:31:01.788Z,98991.00
2022-10-17T15:33:30.232Z,98980.09
2022-10-17T15:38:26.926Z,98977.84
2022-10-17T15:40:55.355Z,98980.09
2022-10-17T15:43:25.286Z,98975.78
2022-10-17T15:45:53.860Z,98979.50
2022-10-17T15:48:31.210Z,98982.56
2022-10-17T15:50:59.738Z,98984.16
2022-10-17T15:53:28.145Z,98982.88
2022-10-17T15:55:56.688Z,98988.88
2022-10-17T15:58:28.262Z,98990.25
2022-10-17T16:00:56.626Z,98988.41
2022-10-17T16:03:25.061Z,98992.25
2022-10-17T16:05:53.443Z,98992.44
2022-10-17T16:08:21.723Z,98997.25
2022-10-17T16:10:50.658Z,99003.38
2022-10-17T16:13:21.184Z,99002.38
2022-10-17T16:15:51.492Z,99004.81
2022-10-17T16:18:21.131Z,99004.81
2022-10-17T16:20:49.627Z,99014.38
2022-10-17T16:23:17.959Z,99020.81
2022-10-17T16:25:46.351Z,99027.91
2022-10-17T16:28:14.599Z,99018.63
2022-10-17T16:30:46.170Z,99023.72
2022-10-17T16:33:15.859Z,99034.38
2022-10-17T16:35:45.699Z,99033.84
2022-10-17T16:38:14.110Z,99033.78
2022-10-17T16:40:42.590Z,99035.63
2022-10-17T16:43:13.300Z,99025.00
2022-10-17T16:45:42.042Z,99031.41
2022-10-17T16:48:12.250Z,99030.03
2022-10-17T16:50:42.302Z,99029.47
2022-10-17T16:53:10.652Z,99036.69
2022-10-17T16:55:39.150Z,99040.50
2022-10-17T16:58:07.510Z,99048.09
2022-10-17T17:00:36.065Z,99056.47
2022-10-17T17:03:04.388Z,99054.59
2022-10-17T17:05:32.804Z,99057.47
2022-10-17T17:08:03.780Z,99058.97
2022-10-17T17:10:32.229Z,99057.03
2022-10-17T17:13:01.732Z,99058.38
2022-10-17T17:15:30.359Z,99057.13
2022-10-17T17:18:02.688Z,99065.94
2022-10-17T17:20:34.809Z,99071.41
2022-10-17T17:23:04.464Z,99069.22
2022-10-17T17:25:35.233Z,99071.94
2022-10-17T17:28:03.744Z,99068.50
2022-10-17T17:30:33.059Z,99068.84
2022-10-17T17:33:01.685Z,99071.94
2022-10-17T17:35:31.389Z,99081.22
2022-10-17T17:41:13.749Z,99072.09
2022-10-17T17:43:42.236Z,99080.16
2022-10-17T17:46:11.254Z,99075.34
2022-10-17T17:48:41.049Z,99077.41
2022-10-17T17:51:12.443Z,99081.03
2022-10-17T17:53:41.711Z,99080.66
2022-10-17T17:56:14.080Z,99084.13
2022-10-17T17:58:45.547Z,99091.75
2022-10-17T18:01:20.379Z,99088.97
2022-10-17T18:03:52.753Z,99097.31
2022-10-17T18:06:22.884Z,99100.22
2022-10-17T18:08:53.462Z,99104.22
2022-10-17T18:11:23.737Z,99107.28
2022-10-17T18:13:55.753Z,99102.53
2022-10-17T18:16:24.216Z,99099.50
2022-10-17T18:18:52.628Z,99104.47
2022-10-17T18:21:21.018Z,99110.31
2022-10-17T18:23:50.313Z,99112.09
2022-10-17T18:26:19.069Z,99121.75
2022-10-17T18:28:50.681Z,99114.81
2022-10-17T18:31:24.433Z,99124.34
2022-10-17T18:33:53.774Z,99122.50
2022-10-17T18:36:22.914Z,99122.91
2022-10-17T18:38:51.389Z,99121.75
2022-10-17T18:41:23.494Z,99129.09
2022-10-17T18:43:55.029Z,99137.94
2022-10-17T18:46:25.601Z,99133.63
2022-10-17T18:48:54.688Z,99132.50
2022-10-17T18:51:25.785Z,99132.59
2022-10-17T18:53:56.496Z,99132.41
2022-10-17T18:56:25.127Z,99133.44
2022-10-17T18:58:55.391Z,99134.47
2022-10-17T19:01:27.287Z,99127.13
2022-10-17T19:03:58.482Z,99135.47
2022-10-17T19:06:31.709Z,99137.41
2022-10-17T19:09:00.409Z,99142.34
2022-10-17T19:11:30.704Z,99139.19
2022-10-17T19:14:12.708Z,99136.53
2022-10-17T19:16:45.300Z,99147.09
2022-10-17T19:19:16.907Z,99138.88
2022-10-17T19:21:45.904Z,99135.41
2022-10-17T19:24:16.757Z,99140.81
2022-10-17T19:26:47.711Z,99137.84
2022-10-17T19:29:18.944Z,99146.69
2022-10-17T19:31:48.421Z,99146.69
2022-10-17T19:34:18.030Z,99153.97
2022-10-17T19:36:46.565Z,99148.28
2022-10-17T19:39:17.979Z,99145.44
2022-10-17T19:41:48.618Z,99148.41
2022-10-17T19:44:18.926Z,99148.09
2022-10-17T19:46:49.206Z,99146.13
2022-10-17T19:49:18.112Z,99157.75
2022-10-17T19:51:46.416Z,99145.59
2022-10-17T19:54:18.301Z,99151.19
2022-10-17T19:56:46.888Z,99143.91
2022-10-17T19:59:18.296Z,99140.00
2022-10-17T20:01:46.853Z,99142.59
2022-10-17T20:04:15.573Z,99135.09
2022-10-17T20:06:44.188Z,99134.59
2022-10-17T20:09:16.694Z,99139.38
2022-10-17T20:11:46.597Z,99132.22
2022-10-17T20:14:14.976Z,99138.44
2022-10-17T20:16:49.991Z,99133.38
2022-10-17T20:19:19.877Z,99137.56
2022-10-17T20:21:48.155Z,99135.72
2022-10-17T20:24:17.918Z,99144.25
2022-10-17T20:26:46.977Z,99141.50
2022-10-17T20:29:23.579Z,99145.41
2022-10-17T20:31:53.175Z,99150.16
2022-10-17T20:34:21.774Z,99153.81
2022-10-17T20:36:50.733Z,99150.72
2022-10-17T20:39:21.413Z,99148.31
2022-10-17T20:41:50.112Z,99153.56
2022-10-17T20:44:18.394Z,99158.19
2022-10-17T20:47:00.713Z,99163.13
2022-10-17T20:49:32.069Z,99159.81
2022-10-17T20:52:01.820Z,99163.59
2022-10-17T20:54:30.243Z,99175.94
2022-10-17T20:57:01.131Z,99170.94
2022-10-17T20:59:34.287Z,99171.66
2022-10-17T21:02:02.904Z,99167.16
2022-10-17T21:04:46.001Z,99161.31
2022-10-17T21:07:15.653Z,99171.38
2022-10-17T21:09:45.308Z,99171.16
2022-10-17T21:12:21.583Z,99173.84
2022-10-17T21:14:59.452Z,99168.03
2022-10-17T21:17:28.151Z,99168.03
2022-10-17T21:19:57.700Z,99164.38
2022-10-17T21:22:26.086Z,99171.72
2022-10-17T21:24:54.408Z,99164.47
2022-10-17T21:27:22.738Z,99171.09
2022-10-17T21:29:52.058Z,99172.16
2022-10-17T21:32:33.340Z,99166.50
2022-10-17T21:35:10.560Z,99173.06
2022-10-17T21:37:38.888Z,99180.72
2022-10-17T21:40:09.139Z,99180.59
2022-10-17T21:42:37.362Z,99185.69
2022-10-17T21:45:15.146Z,99179.94
2022-10-17T21:47:54.956Z,99185.25
2022-10-17T21:50:33.583Z,99181.59
2022-10-17T21:53:01.812Z,99182.91
2022-10-17T21:55:30.064Z,99185.78
2022-10-17T21:57:58.385Z,99178.91
2022-10-17T22:00:26.613Z,99176.91
2022-10-17T22:02:54.921Z,99176.25
2022-10-17T22:05:23.343Z,99172.81
2022-10-17T22:07:52.898Z,99168.50
2022-10-17T22:10:21.215Z,99166.53
2022-10-17T22:12:49.423Z,99165.31
2022-10-17T22:15:17.826Z,99167.81
2022-10-17T22:17:46.066Z,99158.56
2022-10-17T22:20:14.337Z,99168.41
2022-10-17T22:22:42.537Z,99163.75
2022-10-17T22:25:12.538Z,99169.13
2022-10-17T22:27:41.004Z,99161.59
2022-10-17T22:30:11.218Z,99159.19
2022-10-17T22:32:39.446Z,99161.72
2022-10-17T22:35:09.041Z,99159.09
2022-10-17T22:37:37.567Z,99155.84
2022-10-17T22:40:07.783Z,99157.31
2022-10-17T22:42:37.562Z,99150.94
2022-10-17T22:45:06.847Z,99149.34
2022-10-17T22:47:35.111Z,99141.53
2022-10-17T22:50:03.516Z,99150.28
2022-10-17T22:52:31.992Z,99146.56
2022-10-17T22:55:00.455Z,99138.81
2022-10-17T22:57:28.665Z,99140.69
2022-10-17T22:59:58.342Z,99141.41
2022-10-17T23:02:26.661Z,99139.84
2022-10-17T23:04:54.850Z,99138.28
2022-10-17T23:07:23.243Z,99140.69
2022-10-17T23:09:51.964Z,99130.38
2022-10-17T23:12:20.654Z,99134.44
2022-10-17T23:14:48.992Z,99132.56
2022-10-17T23:17:19.078Z,99133.22
2022-10-17T23:19:47.372Z,99133.97
2022-10-17T23:22:15.627Z,99130.41
2022-10-17T23:24:43.936Z,99130.50
2022-10-17T23:27:12.287Z,99127.25
2022-10-17T23:29:40.471Z,99132.88
2022-10-17T23:32:08.839Z,99127.13
2022-10-17T23:34:38.408Z,99131.38
2022-10-17T23:37:06.778Z,99123.94
2022-10-17T23:39:35.111Z,99115.41
2022-10-17T23:42:03.324Z,99117.06
2022-10-17T23:44:31.724Z,99121.78
2022-10-17T23:47:00.086Z,99111.66
2022-10-17T23:49:28.763Z,99117.91
2022-10-17T23:51:58.481Z,99108.59
2022-10-17T23:54:26.732Z,99107.97
2022-10-17T23:56:55.026Z,99102.03
2022-10-17T23:59:23.300Z,99110.56
